JAL67 RJFK-RJBB
Flight info
| Callsign | JAL67 |
|---|---|
| Flight time | 0h 41m |
| Altitude | 31000 |
| Route | MIDAI M750 MADOG Y53 NIXOV |
| Aircraft | B738/M-SDE2E3FGHIRWXY/LB1 |
Departure
| Time | 2026-04-29 08:43 |
|---|---|
| Airport | Kagoshima Airport (RJFK) |
Arrival
| Time | 2026-04-29 09:24 |
|---|---|
| Airport | Kansai International Airport (RJBB) |
| Time | Latitude | Longitude | Altitude | Speed | Heading |
|---|---|---|---|---|---|
| 2026-04-29 08:21 | 31.80137 | 130.71684 | 884 ft | 0 kts | 240° |
| 2026-04-29 08:34 | 31.80139 | 130.71688 | 881 ft | 3 kts | 240° |
| 2026-04-29 08:34 | 31.80153 | 130.71715 | 882 ft | 4 kts | 237° |
| 2026-04-29 08:34 | 31.80167 | 130.71742 | 883 ft | 4 kts | 234° |
| 2026-04-29 08:35 | 31.80184 | 130.71767 | 883 ft | 4 kts | 229° |
| 2026-04-29 08:35 | 31.80203 | 130.71788 | 884 ft | 4 kts | 209° |
| 2026-04-29 08:35 | 31.80223 | 130.71795 | 884 ft | 2 kts | 151° |
| 2026-04-29 08:35 | 31.80224 | 130.71794 | 884 ft | 0 kts | 150° |
| 2026-04-29 08:37 | 31.80215 | 130.71800 | 884 ft | 5 kts | 150° |
| 2026-04-29 08:38 | 31.80169 | 130.71831 | 882 ft | 10 kts | 150° |
| 2026-04-29 08:38 | 31.80095 | 130.71881 | 881 ft | 14 kts | 150° |
| 2026-04-29 08:38 | 31.80012 | 130.71937 | 880 ft | 13 kts | 149° |
| 2026-04-29 08:38 | 31.79932 | 130.71991 | 878 ft | 14 kts | 150° |
| 2026-04-29 08:39 | 31.79841 | 130.72053 | 875 ft | 16 kts | 150° |
| 2026-04-29 08:39 | 31.79745 | 130.72118 | 874 ft | 16 kts | 150° |
| 2026-04-29 08:39 | 31.79682 | 130.72160 | 873 ft | 15 kts | 150° |
| 2026-04-29 08:39 | 31.79611 | 130.72208 | 872 ft | 16 kts | 150° |
| 2026-04-29 08:40 | 31.79518 | 130.72270 | 872 ft | 15 kts | 150° |
| 2026-04-29 08:40 | 31.79430 | 130.72330 | 872 ft | 15 kts | 150° |
| 2026-04-29 08:40 | 31.79328 | 130.72399 | 871 ft | 18 kts | 150° |
| 2026-04-29 08:40 | 31.79211 | 130.72478 | 871 ft | 19 kts | 150° |
| 2026-04-29 08:41 | 31.79122 | 130.72564 | 869 ft | 15 kts | 107° |
| 2026-04-29 08:41 | 31.79133 | 130.72625 | 867 ft | 0 kts | 60° |
| 2026-04-29 08:41 | 31.79135 | 130.72627 | 867 ft | 2 kts | 60° |
| 2026-04-29 08:41 | 31.79149 | 130.72657 | 866 ft | 7 kts | 60° |
| 2026-04-29 08:42 | 31.79195 | 130.72701 | 866 ft | 9 kts | 18° |
| 2026-04-29 08:42 | 31.79256 | 130.72671 | 868 ft | 13 kts | 330° |
| 2026-04-29 08:42 | 31.79529 | 130.72487 | 872 ft | 81 kts | 330° |
| 2026-04-29 08:42 | 31.80217 | 130.72022 | 883 ft | 144 kts | 330° |
| 2026-04-29 08:43 | 31.81200 | 130.71372 | 1192 ft | 171 kts | 328° |
| 2026-04-29 08:43 | 31.82254 | 130.70655 | 1865 ft | 180 kts | 331° |
| 2026-04-29 08:43 | 31.83468 | 130.70218 | 2623 ft | 188 kts | 358° |
| 2026-04-29 08:43 | 31.84794 | 130.70630 | 3005 ft | 214 kts | 33° |
| 2026-04-29 08:44 | 31.85728 | 130.72063 | 3293 ft | 236 kts | 73° |
| 2026-04-29 08:44 | 31.85710 | 130.74054 | 3600 ft | 253 kts | 105° |
| 2026-04-29 08:44 | 31.85204 | 130.76020 | 4469 ft | 254 kts | 108° |
| 2026-04-29 08:44 | 31.84704 | 130.78076 | 5085 ft | 267 kts | 107° |
| 2026-04-29 08:45 | 31.84165 | 130.80207 | 5783 ft | 276 kts | 115° |
| 2026-04-29 08:45 | 31.83004 | 130.81968 | 6519 ft | 275 kts | 146° |
| 2026-04-29 08:45 | 31.81388 | 130.83178 | 7275 ft | 279 kts | 151° |
| 2026-04-29 08:45 | 31.79694 | 130.84378 | 7968 ft | 286 kts | 152° |
| 2026-04-29 08:46 | 31.78047 | 130.85722 | 8715 ft | 296 kts | 136° |
| 2026-04-29 08:46 | 31.76987 | 130.87840 | 9453 ft | 308 kts | 114° |
| 2026-04-29 08:46 | 31.76240 | 130.90202 | 10106 ft | 316 kts | 113° |
| 2026-04-29 08:46 | 31.75464 | 130.92688 | 10427 ft | 336 kts | 113° |
| 2026-04-29 08:47 | 31.74626 | 130.95325 | 10682 ft | 357 kts | 113° |
| 2026-04-29 08:47 | 31.73728 | 130.98096 | 11189 ft | 368 kts | 114° |
| 2026-04-29 08:47 | 31.72801 | 131.00917 | 11855 ft | 372 kts | 115° |
| 2026-04-29 08:47 | 31.71853 | 131.03767 | 12522 ft | 377 kts | 115° |
| 2026-04-29 08:48 | 31.70884 | 131.06656 | 13156 ft | 383 kts | 115° |
| 2026-04-29 08:48 | 31.69898 | 131.09581 | 13831 ft | 387 kts | 116° |
| 2026-04-29 08:48 | 31.68897 | 131.12543 | 14417 ft | 392 kts | 116° |
| 2026-04-29 08:48 | 31.67890 | 131.15514 | 15082 ft | 392 kts | 116° |
| 2026-04-29 08:49 | 31.66878 | 131.18497 | 15711 ft | 395 kts | 115° |
| 2026-04-29 08:49 | 31.65859 | 131.21520 | 16229 ft | 401 kts | 115° |
| 2026-04-29 08:49 | 31.64825 | 131.24574 | 16815 ft | 405 kts | 115° |
| 2026-04-29 08:49 | 31.63776 | 131.27657 | 17433 ft | 408 kts | 115° |
| 2026-04-29 08:50 | 31.62720 | 131.30762 | 18031 ft | 411 kts | 115° |
| 2026-04-29 08:50 | 31.61746 | 131.33937 | 18540 ft | 419 kts | 105° |
| 2026-04-29 08:50 | 31.61602 | 131.37367 | 18972 ft | 427 kts | 83° |
| 2026-04-29 08:50 | 31.62407 | 131.40715 | 19470 ft | 428 kts | 62° |
| 2026-04-29 08:51 | 31.63892 | 131.43748 | 19979 ft | 429 kts | 56° |
| 2026-04-29 08:51 | 31.65462 | 131.46749 | 20385 ft | 434 kts | 56° |
| 2026-04-29 08:51 | 31.67058 | 131.49774 | 20812 ft | 438 kts | 56° |
| 2026-04-29 08:51 | 31.68658 | 131.52830 | 21282 ft | 441 kts | 57° |
| 2026-04-29 08:52 | 31.70257 | 131.55912 | 21753 ft | 443 kts | 57° |
| 2026-04-29 08:52 | 31.71858 | 131.59023 | 22204 ft | 446 kts | 57° |
| 2026-04-29 08:52 | 31.73464 | 131.62162 | 22637 ft | 451 kts | 57° |
| 2026-04-29 08:52 | 31.75080 | 131.65332 | 23028 ft | 455 kts | 57° |
| 2026-04-29 08:53 | 31.76709 | 131.68534 | 23461 ft | 458 kts | 57° |
| 2026-04-29 08:53 | 31.78346 | 131.71757 | 23851 ft | 460 kts | 57° |
| 2026-04-29 08:53 | 31.79434 | 131.73902 | 24088 ft | 462 kts | 57° |
| 2026-04-29 08:54 | 31.80251 | 131.75512 | 24261 ft | 463 kts | 57° |
| 2026-04-29 08:54 | 31.81908 | 131.78778 | 24601 ft | 466 kts | 57° |
| 2026-04-29 08:54 | 31.83569 | 131.82057 | 24980 ft | 467 kts | 57° |
| 2026-04-29 08:55 | 31.84670 | 131.84231 | 25213 ft | 470 kts | 57° |
| 2026-04-29 08:56 | 31.85523 | 131.85915 | 25353 ft | 472 kts | 57° |
| 2026-04-29 08:56 | 31.87211 | 131.89251 | 25645 ft | 476 kts | 57° |
| 2026-04-29 08:56 | 31.88909 | 131.92609 | 25983 ft | 478 kts | 57° |
| 2026-04-29 08:56 | 31.90612 | 131.95982 | 26345 ft | 480 kts | 57° |
| 2026-04-29 08:57 | 31.92322 | 131.99372 | 26669 ft | 483 kts | 57° |
| 2026-04-29 08:57 | 31.93985 | 132.02669 | 27020 ft | 484 kts | 57° |
| 2026-04-29 08:57 | 31.95705 | 132.06086 | 27352 ft | 486 kts | 57° |
| 2026-04-29 08:57 | 31.97439 | 132.09530 | 27574 ft | 491 kts | 57° |
| 2026-04-29 08:58 | 31.99186 | 132.13004 | 27787 ft | 496 kts | 57° |
| 2026-04-29 08:58 | 32.00946 | 132.16507 | 28060 ft | 499 kts | 57° |
| 2026-04-29 08:58 | 32.02712 | 132.20028 | 28438 ft | 498 kts | 57° |
| 2026-04-29 08:58 | 32.04464 | 132.23527 | 29029 ft | 493 kts | 57° |
| 2026-04-29 08:59 | 32.06176 | 132.26947 | 29507 ft | 491 kts | 57° |
| 2026-04-29 08:59 | 32.07926 | 132.30441 | 29808 ft | 495 kts | 57° |
| 2026-04-29 08:59 | 32.09684 | 132.33955 | 30009 ft | 499 kts | 57° |
| 2026-04-29 08:59 | 32.11514 | 132.37435 | 30319 ft | 498 kts | 51° |
| 2026-04-29 09:00 | 32.13678 | 132.40589 | 30689 ft | 492 kts | 42° |
| 2026-04-29 09:00 | 32.16169 | 132.43293 | 31043 ft | 484 kts | 33° |
| 2026-04-29 09:00 | 32.18821 | 132.45774 | 31037 ft | 488 kts | 32° |
| 2026-04-29 09:01 | 32.24168 | 132.50698 | 31054 ft | 485 kts | 32° |
| 2026-04-29 09:01 | 32.43871 | 132.69332 | 31083 ft | 476 kts | 33° |
| 2026-04-29 09:02 | 32.64832 | 132.89355 | 31091 ft | 492 kts | 33° |
| 2026-04-29 09:02 | 32.83378 | 133.12582 | 31031 ft | 494 kts | 53° |
| 2026-04-29 09:02 | 32.88427 | 133.21364 | 30913 ft | 482 kts | 51° |
| 2026-04-29 09:03 | 32.90361 | 133.24595 | 30579 ft | 477 kts | 50° |
| 2026-04-29 09:03 | 32.92280 | 133.27788 | 30246 ft | 473 kts | 50° |
| 2026-04-29 09:03 | 32.94182 | 133.30961 | 29854 ft | 469 kts | 50° |
| 2026-04-29 09:03 | 32.96043 | 133.34087 | 29438 ft | 466 kts | 50° |
| 2026-04-29 09:04 | 32.97930 | 133.37271 | 29031 ft | 463 kts | 51° |
| 2026-04-29 09:04 | 32.99771 | 133.40388 | 28646 ft | 459 kts | 50° |
| 2026-04-29 09:04 | 33.01574 | 133.43443 | 28235 ft | 456 kts | 50° |
| 2026-04-29 09:04 | 33.07064 | 133.52765 | 27109 ft | 446 kts | 51° |
| 2026-04-29 09:05 | 33.14091 | 133.64758 | 25693 ft | 434 kts | 51° |
| 2026-04-29 09:05 | 33.20940 | 133.76476 | 24276 ft | 426 kts | 51° |
| 2026-04-29 09:05 | 33.27685 | 133.88053 | 22682 ft | 421 kts | 51° |
| 2026-04-29 09:05 | 33.34300 | 133.99438 | 21158 ft | 413 kts | 51° |
| 2026-04-29 09:06 | 33.40640 | 134.10166 | 19569 ft | 406 kts | 45° |
| 2026-04-29 09:06 | 33.42436 | 134.13014 | 19299 ft | 404 kts | 54° |
| 2026-04-29 09:06 | 33.43932 | 134.15859 | 18953 ft | 403 kts | 54° |
| 2026-04-29 09:06 | 33.45443 | 134.18656 | 18618 ft | 400 kts | 53° |
| 2026-04-29 09:07 | 33.47002 | 134.21409 | 18134 ft | 399 kts | 50° |
| 2026-04-29 09:07 | 33.48543 | 134.23871 | 17728 ft | 401 kts | 51° |
| 2026-04-29 09:07 | 33.50134 | 134.26645 | 17294 ft | 406 kts | 55° |
| 2026-04-29 09:07 | 33.51627 | 134.29530 | 16803 ft | 407 kts | 54° |
| 2026-04-29 09:08 | 33.53204 | 134.32318 | 16509 ft | 401 kts | 52° |
| 2026-04-29 09:08 | 33.54800 | 134.35053 | 16163 ft | 398 kts | 52° |
| 2026-04-29 09:08 | 33.56371 | 134.37753 | 15804 ft | 392 kts | 52° |
| 2026-04-29 09:08 | 33.57906 | 134.40422 | 15451 ft | 386 kts | 52° |
| 2026-04-29 09:09 | 33.59411 | 134.43056 | 15096 ft | 380 kts | 53° |
| 2026-04-29 09:09 | 33.61008 | 134.45520 | 14746 ft | 369 kts | 38° |
| 2026-04-29 09:09 | 33.63052 | 134.47172 | 14511 ft | 349 kts | 18° |
| 2026-04-29 09:09 | 33.65285 | 134.48301 | 14187 ft | 341 kts | 14° |
| 2026-04-29 09:10 | 33.67458 | 134.49315 | 13875 ft | 337 kts | 14° |
| 2026-04-29 09:10 | 33.69638 | 134.50318 | 13508 ft | 335 kts | 14° |
| 2026-04-29 09:10 | 33.71807 | 134.51323 | 13164 ft | 333 kts | 15° |
| 2026-04-29 09:10 | 33.73956 | 134.52329 | 12861 ft | 330 kts | 15° |
| 2026-04-29 09:11 | 33.76087 | 134.53332 | 12524 ft | 328 kts | 15° |
| 2026-04-29 09:11 | 33.78216 | 134.54295 | 12225 ft | 324 kts | 13° |
| 2026-04-29 09:11 | 33.80326 | 134.55267 | 11921 ft | 325 kts | 15° |
| 2026-04-29 09:11 | 33.82417 | 134.56283 | 11592 ft | 323 kts | 16° |
| 2026-04-29 09:12 | 33.84492 | 134.57300 | 11290 ft | 321 kts | 16° |
| 2026-04-29 09:12 | 33.86553 | 134.58306 | 10963 ft | 319 kts | 17° |
| 2026-04-29 09:12 | 33.88605 | 134.59302 | 10682 ft | 317 kts | 16° |
| 2026-04-29 09:12 | 33.90645 | 134.60290 | 10370 ft | 315 kts | 16° |
| 2026-04-29 09:13 | 33.92666 | 134.61265 | 10192 ft | 309 kts | 16° |
| 2026-04-29 09:13 | 33.94636 | 134.62212 | 10043 ft | 301 kts | 17° |
| 2026-04-29 09:13 | 33.96566 | 134.63142 | 9790 ft | 298 kts | 17° |
| 2026-04-29 09:13 | 33.98485 | 134.64065 | 9493 ft | 296 kts | 15° |
| 2026-04-29 09:14 | 34.00371 | 134.64972 | 9198 ft | 294 kts | 16° |
| 2026-04-29 09:14 | 34.02266 | 134.65883 | 8913 ft | 292 kts | 16° |
| 2026-04-29 09:14 | 34.04145 | 134.66789 | 8640 ft | 290 kts | 16° |
| 2026-04-29 09:14 | 34.06014 | 134.67690 | 8353 ft | 288 kts | 16° |
| 2026-04-29 09:15 | 34.07869 | 134.68584 | 8067 ft | 286 kts | 17° |
| 2026-04-29 09:15 | 34.09712 | 134.69473 | 7779 ft | 284 kts | 17° |
| 2026-04-29 09:15 | 34.11543 | 134.70358 | 7506 ft | 282 kts | 17° |
| 2026-04-29 09:15 | 34.13357 | 134.71233 | 7251 ft | 280 kts | 17° |
| 2026-04-29 09:16 | 34.15022 | 134.72412 | 6955 ft | 287 kts | 42° |
| 2026-04-29 09:16 | 34.16151 | 134.74388 | 6732 ft | 285 kts | 58° |
| 2026-04-29 09:16 | 34.17096 | 134.76490 | 6465 ft | 284 kts | 59° |
| 2026-04-29 09:16 | 34.18026 | 134.78586 | 6195 ft | 282 kts | 58° |
| 2026-04-29 09:17 | 34.18951 | 134.80664 | 5933 ft | 280 kts | 58° |
| 2026-04-29 09:17 | 34.19874 | 134.82726 | 5676 ft | 277 kts | 58° |
| 2026-04-29 09:17 | 34.20790 | 134.84763 | 5418 ft | 275 kts | 58° |
| 2026-04-29 09:17 | 34.21700 | 134.86781 | 5179 ft | 272 kts | 58° |
| 2026-04-29 09:18 | 34.22602 | 134.88779 | 4937 ft | 269 kts | 59° |
| 2026-04-29 09:18 | 34.23457 | 134.90785 | 4697 ft | 267 kts | 60° |
| 2026-04-29 09:18 | 34.24285 | 134.92777 | 4460 ft | 264 kts | 61° |
| 2026-04-29 09:18 | 34.25101 | 134.94752 | 4210 ft | 261 kts | 61° |
| 2026-04-29 09:19 | 34.25902 | 134.96697 | 3963 ft | 256 kts | 61° |
| 2026-04-29 09:19 | 34.26689 | 134.98601 | 3714 ft | 250 kts | 61° |
| 2026-04-29 09:19 | 34.27414 | 135.00356 | 3487 ft | 245 kts | 61° |
| 2026-04-29 09:19 | 34.28171 | 135.02179 | 3233 ft | 239 kts | 61° |
| 2026-04-29 09:20 | 34.28948 | 135.03928 | 2986 ft | 234 kts | 53° |
| 2026-04-29 09:20 | 34.29933 | 135.05425 | 2759 ft | 227 kts | 47° |
| 2026-04-29 09:20 | 34.30934 | 135.06845 | 2542 ft | 217 kts | 49° |
| 2026-04-29 09:20 | 34.31876 | 135.08225 | 2294 ft | 209 kts | 50° |
| 2026-04-29 09:21 | 34.32770 | 135.09558 | 2054 ft | 199 kts | 49° |
| 2026-04-29 09:21 | 34.33626 | 135.10835 | 1804 ft | 192 kts | 49° |
| 2026-04-29 09:21 | 34.34458 | 135.12076 | 1555 ft | 188 kts | 50° |
| 2026-04-29 09:21 | 34.35262 | 135.13276 | 1358 ft | 177 kts | 50° |
| 2026-04-29 09:22 | 34.36015 | 135.14400 | 1309 ft | 171 kts | 50° |
| 2026-04-29 09:22 | 34.36750 | 135.15496 | 1306 ft | 166 kts | 50° |
| 2026-04-29 09:22 | 34.37463 | 135.16560 | 1300 ft | 159 kts | 49° |
| 2026-04-29 09:22 | 34.38157 | 135.17594 | 1144 ft | 156 kts | 49° |
| 2026-04-29 09:23 | 34.38828 | 135.18592 | 930 ft | 152 kts | 50° |
| 2026-04-29 09:23 | 34.39485 | 135.19574 | 727 ft | 150 kts | 51° |
| 2026-04-29 09:23 | 34.40130 | 135.20544 | 555 ft | 146 kts | 49° |
| 2026-04-29 09:23 | 34.40778 | 135.21486 | 351 ft | 146 kts | 51° |
| 2026-04-29 09:24 | 34.41418 | 135.22446 | 164 ft | 147 kts | 50° |
| 2026-04-29 09:24 | 34.42050 | 135.23391 | 14 ft | 141 kts | 50° |
| 2026-04-29 09:24 | 34.42556 | 135.24147 | 13 ft | 83 kts | 51° |
| 2026-04-29 09:24 | 34.42788 | 135.24491 | 13 ft | 34 kts | 51° |
| 2026-04-29 09:25 | 34.42933 | 135.24700 | 13 ft | 31 kts | 44° |
| 2026-04-29 09:25 | 34.43101 | 135.24842 | 14 ft | 29 kts | 23° |
| 2026-04-29 09:25 | 34.43266 | 135.24922 | 19 ft | 20 kts | 21° |
| 2026-04-29 09:25 | 34.43373 | 135.24895 | 18 ft | 17 kts | 294° |
| 2026-04-29 09:26 | 34.43326 | 135.24774 | 18 ft | 16 kts | 231° |
| 2026-04-29 09:26 | 34.43254 | 135.24666 | 18 ft | 18 kts | 231° |
| 2026-04-29 09:26 | 34.43171 | 135.24543 | 18 ft | 20 kts | 230° |
| 2026-04-29 09:26 | 34.43079 | 135.24409 | 18 ft | 21 kts | 231° |
| 2026-04-29 09:27 | 34.42984 | 135.24266 | 18 ft | 22 kts | 232° |
| 2026-04-29 09:27 | 34.42889 | 135.24123 | 18 ft | 22 kts | 231° |
| 2026-04-29 09:27 | 34.42795 | 135.23984 | 18 ft | 21 kts | 231° |
| 2026-04-29 09:27 | 34.42728 | 135.23849 | 18 ft | 18 kts | 266° |
| 2026-04-29 09:28 | 34.42805 | 135.23737 | 18 ft | 18 kts | 322° |
| 2026-04-29 09:28 | 34.42897 | 135.23647 | 18 ft | 16 kts | 321° |
| 2026-04-29 09:28 | 34.42971 | 135.23578 | 19 ft | 9 kts | 336° |
| 2026-04-29 09:28 | 34.43025 | 135.23597 | 18 ft | 9 kts | 46° |
| 2026-04-29 09:29 | 34.43062 | 135.23654 | 18 ft | 9 kts | 51° |
| 2026-04-29 09:29 | 34.43096 | 135.23782 | 18 ft | 8 kts | 138° |
| 2026-04-29 09:29 | 34.43070 | 135.23808 | 19 ft | 0 kts | 141° |